sensor_id;sensor_type;location;lat;lon;timestamp;P1;durP1;ratioP1;P2;durP2;ratioP2
52031;SDS011;38044;45.148;39.604;2023-01-29T00:01:43;43.67;;;20.77;;
52031;SDS011;38044;45.148;39.604;2023-01-29T00:04:09;37.40;;;20.15;;
52031;SDS011;38044;45.148;39.604;2023-01-29T00:06:34;39.60;;;19.73;;
52031;SDS011;38044;45.148;39.604;2023-01-29T00:09:00;39.80;;;19.90;;
52031;SDS011;38044;45.148;39.604;2023-01-29T00:11:26;39.60;;;19.33;;
52031;SDS011;38044;45.148;39.604;2023-01-29T00:13:52;40.40;;;18.85;;
52031;SDS011;38044;45.148;39.604;2023-01-29T00:16:18;41.67;;;19.05;;
52031;SDS011;38044;45.148;39.604;2023-01-29T00:18:44;38.75;;;20.00;;
52031;SDS011;38044;45.148;39.604;2023-01-29T00:21:10;47.55;;;20.35;;
52031;SDS011;38044;45.148;39.604;2023-01-29T00:23:37;41.75;;;20.52;;
52031;SDS011;38044;45.148;39.604;2023-01-29T00:26:03;39.20;;;20.27;;
52031;SDS011;38044;45.148;39.604;2023-01-29T00:28:29;43.25;;;19.35;;
52031;SDS011;38044;45.148;39.604;2023-01-29T00:30:55;42.30;;;19.70;;
52031;SDS011;38044;45.148;39.604;2023-01-29T00:33:20;40.10;;;18.10;;
52031;SDS011;38044;45.148;39.604;2023-01-29T00:35:46;39.58;;;19.05;;
52031;SDS011;38044;45.148;39.604;2023-01-29T00:38:12;44.28;;;21.00;;
52031;SDS011;38044;45.148;39.604;2023-01-29T00:40:38;38.90;;;19.45;;
52031;SDS011;38044;45.148;39.604;2023-01-29T00:43:23;38.83;;;18.77;;
52031;SDS011;38044;45.148;39.604;2023-01-29T00:46:08;41.28;;;18.98;;
52031;SDS011;38044;45.148;39.604;2023-01-29T00:48:34;40.45;;;19.50;;
52031;SDS011;38044;45.148;39.604;2023-01-29T00:51:01;43.28;;;19.27;;
52031;SDS011;38044;45.148;39.604;2023-01-29T00:53:27;40.97;;;19.35;;
52031;SDS011;38044;45.148;39.604;2023-01-29T00:55:55;47.25;;;20.60;;
52031;SDS011;38044;45.148;39.604;2023-01-29T00:58:24;46.45;;;20.65;;
52031;SDS011;38044;45.148;39.604;2023-01-29T01:00:53;41.20;;;19.83;;
52031;SDS011;38044;45.148;39.604;2023-01-29T01:03:20;40.80;;;19.23;;
52031;SDS011;38044;45.148;39.604;2023-01-29T01:05:45;37.28;;;18.80;;
52031;SDS011;38044;45.148;39.604;2023-01-29T01:08:11;37.20;;;18.77;;
52031;SDS011;38044;45.148;39.604;2023-01-29T01:11:00;40.10;;;18.75;;
52031;SDS011;38044;45.148;39.604;2023-01-29T01:13:28;43.15;;;18.85;;
52031;SDS011;38044;45.148;39.604;2023-01-29T01:15:56;40.90;;;18.90;;
52031;SDS011;38044;45.148;39.604;2023-01-29T01:18:21;43.80;;;19.75;;
52031;SDS011;38044;45.148;39.604;2023-01-29T01:20:47;39.40;;;19.48;;
52031;SDS011;38044;45.148;39.604;2023-01-29T01:23:19;38.08;;;18.40;;
52031;SDS011;38044;45.148;39.604;2023-01-29T01:25:45;40.67;;;18.88;;
52031;SDS011;38044;45.148;39.604;2023-01-29T01:28:11;41.03;;;18.92;;
52031;SDS011;38044;45.148;39.604;2023-01-29T01:30:37;43.67;;;20.17;;
52031;SDS011;38044;45.148;39.604;2023-01-29T01:33:03;40.08;;;18.83;;
52031;SDS011;38044;45.148;39.604;2023-01-29T01:35:29;43.22;;;19.67;;
52031;SDS011;38044;45.148;39.604;2023-01-29T01:37:54;38.47;;;18.02;;
52031;SDS011;38044;45.148;39.604;2023-01-29T01:40:21;39.60;;;19.40;;
52031;SDS011;38044;45.148;39.604;2023-01-29T01:42:55;39.20;;;20.10;;
52031;SDS011;38044;45.148;39.604;2023-01-29T01:45:27;40.13;;;19.48;;
52031;SDS011;38044;45.148;39.604;2023-01-29T01:48:03;42.55;;;19.65;;
52031;SDS011;38044;45.148;39.604;2023-01-29T01:53:15;44.33;;;20.67;;
52031;SDS011;38044;45.148;39.604;2023-01-29T01:55:51;42.58;;;20.65;;
52031;SDS011;38044;45.148;39.604;2023-01-29T01:58:25;45.67;;;21.73;;
52031;SDS011;38044;45.148;39.604;2023-01-29T02:00:56;40.65;;;21.73;;
52031;SDS011;38044;45.148;39.604;2023-01-29T02:03:22;43.53;;;21.88;;
52031;SDS011;38044;45.148;39.604;2023-01-29T02:06:10;43.15;;;20.35;;
52031;SDS011;38044;45.148;39.604;2023-01-29T02:08:55;43.15;;;22.45;;
52031;SDS011;38044;45.148;39.604;2023-01-29T02:11:44;40.80;;;22.20;;
52031;SDS011;38044;45.148;39.604;2023-01-29T02:14:10;46.45;;;24.00;;
52031;SDS011;38044;45.148;39.604;2023-01-29T02:16:36;41.20;;;22.60;;
52031;SDS011;38044;45.148;39.604;2023-01-29T02:19:07;41.38;;;23.35;;
52031;SDS011;38044;45.148;39.604;2023-01-29T02:29:22;42.55;;;23.10;;
52031;SDS011;38044;45.148;39.604;2023-01-29T02:34:58;45.33;;;22.73;;
52031;SDS011;38044;45.148;39.604;2023-01-29T02:37:54;44.00;;;22.67;;
52031;SDS011;38044;45.148;39.604;2023-01-29T02:40:29;46.47;;;23.90;;
52031;SDS011;38044;45.148;39.604;2023-01-29T02:48:19;42.88;;;23.77;;
52031;SDS011;38044;45.148;39.604;2023-01-29T02:56:38;44.50;;;23.77;;
52031;SDS011;38044;45.148;39.604;2023-01-29T02:59:10;41.00;;;22.37;;
52031;SDS011;38044;45.148;39.604;2023-01-29T03:01:43;48.83;;;25.38;;
52031;SDS011;38044;45.148;39.604;2023-01-29T03:04:21;46.42;;;24.02;;
52031;SDS011;38044;45.148;39.604;2023-01-29T03:06:57;49.50;;;25.30;;
52031;SDS011;38044;45.148;39.604;2023-01-29T03:09:30;44.75;;;24.77;;
52031;SDS011;38044;45.148;39.604;2023-01-29T03:12:02;49.90;;;25.92;;
52031;SDS011;38044;45.148;39.604;2023-01-29T03:14:42;46.72;;;24.45;;
52031;SDS011;38044;45.148;39.604;2023-01-29T03:17:32;52.38;;;26.02;;
52031;SDS011;38044;45.148;39.604;2023-01-29T03:20:05;50.60;;;26.20;;
52031;SDS011;38044;45.148;39.604;2023-01-29T03:22:37;46.97;;;25.45;;
52031;SDS011;38044;45.148;39.604;2023-01-29T03:25:04;50.13;;;26.60;;
52031;SDS011;38044;45.148;39.604;2023-01-29T03:27:55;49.28;;;26.05;;
52031;SDS011;38044;45.148;39.604;2023-01-29T03:30:47;48.35;;;25.27;;
52031;SDS011;38044;45.148;39.604;2023-01-29T03:33:39;51.70;;;26.30;;
52031;SDS011;38044;45.148;39.604;2023-01-29T03:36:31;49.75;;;25.88;;
52031;SDS011;38044;45.148;39.604;2023-01-29T03:39:19;45.80;;;26.38;;
52031;SDS011;38044;45.148;39.604;2023-01-29T03:42:03;51.30;;;26.13;;
52031;SDS011;38044;45.148;39.604;2023-01-29T03:47:36;53.13;;;27.40;;
52031;SDS011;38044;45.148;39.604;2023-01-29T03:52:51;47.30;;;26.63;;
52031;SDS011;38044;45.148;39.604;2023-01-29T03:55:36;48.33;;;24.98;;
52031;SDS011;38044;45.148;39.604;2023-01-29T03:58:39;53.38;;;27.30;;
52031;SDS011;38044;45.148;39.604;2023-01-29T04:01:23;50.08;;;26.75;;
52031;SDS011;38044;45.148;39.604;2023-01-29T04:03:55;51.88;;;26.58;;
52031;SDS011;38044;45.148;39.604;2023-01-29T04:06:35;48.50;;;24.83;;
52031;SDS011;38044;45.148;39.604;2023-01-29T04:09:08;49.00;;;25.85;;
52031;SDS011;38044;45.148;39.604;2023-01-29T04:12:21;50.00;;;25.90;;
52031;SDS011;38044;45.148;39.604;2023-01-29T04:14:43;53.13;;;26.80;;
52031;SDS011;38044;45.148;39.604;2023-01-29T04:17:33;48.97;;;26.65;;
52031;SDS011;38044;45.148;39.604;2023-01-29T04:20:05;51.22;;;25.70;;
52031;SDS011;38044;45.148;39.604;2023-01-29T04:22:36;49.28;;;26.10;;
52031;SDS011;38044;45.148;39.604;2023-01-29T04:25:04;50.60;;;26.60;;
52031;SDS011;38044;45.148;39.604;2023-01-29T04:30:22;51.95;;;26.90;;
52031;SDS011;38044;45.148;39.604;2023-01-29T04:33:16;47.42;;;26.45;;
52031;SDS011;38044;45.148;39.604;2023-01-29T04:41:32;53.45;;;27.17;;
52031;SDS011;38044;45.148;39.604;2023-01-29T04:52:07;50.38;;;25.92;;
52031;SDS011;38044;45.148;39.604;2023-01-29T04:54:53;50.60;;;26.23;;
52031;SDS011;38044;45.148;39.604;2023-01-29T04:57:40;50.25;;;25.60;;
52031;SDS011;38044;45.148;39.604;2023-01-29T05:00:18;54.53;;;27.63;;
52031;SDS011;38044;45.148;39.604;2023-01-29T05:02:51;53.95;;;27.83;;
52031;SDS011;38044;45.148;39.604;2023-01-29T05:05:18;50.58;;;26.17;;
52031;SDS011;38044;45.148;39.604;2023-01-29T05:07:45;50.75;;;27.48;;
52031;SDS011;38044;45.148;39.604;2023-01-29T05:10:13;52.28;;;27.55;;
52031;SDS011;38044;45.148;39.604;2023-01-29T05:12:42;52.35;;;26.60;;
52031;SDS011;38044;45.148;39.604;2023-01-29T05:15:13;51.55;;;27.48;;
52031;SDS011;38044;45.148;39.604;2023-01-29T05:17:44;54.22;;;28.30;;
52031;SDS011;38044;45.148;39.604;2023-01-29T05:20:10;52.53;;;27.20;;
52031;SDS011;38044;45.148;39.604;2023-01-29T05:22:38;53.20;;;27.75;;
52031;SDS011;38044;45.148;39.604;2023-01-29T05:25:26;55.13;;;28.90;;
52031;SDS011;38044;45.148;39.604;2023-01-29T05:27:54;48.38;;;24.75;;
52031;SDS011;38044;45.148;39.604;2023-01-29T05:30:38;52.85;;;25.48;;
52031;SDS011;38044;45.148;39.604;2023-01-29T05:33:12;54.15;;;27.33;;
52031;SDS011;38044;45.148;39.604;2023-01-29T05:35:39;63.65;;;32.80;;
52031;SDS011;38044;45.148;39.604;2023-01-29T05:38:06;257.60;;;140.43;;
52031;SDS011;38044;45.148;39.604;2023-01-29T05:40:32;193.48;;;108.85;;
52031;SDS011;38044;45.148;39.604;2023-01-29T05:42:58;116.43;;;65.97;;
52031;SDS011;38044;45.148;39.604;2023-01-29T05:45:25;61.13;;;31.65;;
52031;SDS011;38044;45.148;39.604;2023-01-29T05:47:54;97.18;;;49.35;;
52031;SDS011;38044;45.148;39.604;2023-01-29T05:50:22;77.78;;;39.60;;
52031;SDS011;38044;45.148;39.604;2023-01-29T05:52:48;59.17;;;29.05;;
52031;SDS011;38044;45.148;39.604;2023-01-29T05:55:14;54.33;;;29.45;;
52031;SDS011;38044;45.148;39.604;2023-01-29T05:57:40;53.40;;;28.70;;
52031;SDS011;38044;45.148;39.604;2023-01-29T06:00:06;104.43;;;51.72;;
52031;SDS011;38044;45.148;39.604;2023-01-29T06:02:33;45.05;;;23.40;;
52031;SDS011;38044;45.148;39.604;2023-01-29T06:04:59;42.35;;;22.92;;
52031;SDS011;38044;45.148;39.604;2023-01-29T06:07:25;42.28;;;22.38;;
52031;SDS011;38044;45.148;39.604;2023-01-29T06:09:51;41.05;;;22.48;;
52031;SDS011;38044;45.148;39.604;2023-01-29T06:12:17;40.50;;;21.88;;
52031;SDS011;38044;45.148;39.604;2023-01-29T06:14:43;40.38;;;21.88;;
52031;SDS011;38044;45.148;39.604;2023-01-29T06:17:08;40.25;;;20.88;;
52031;SDS011;38044;45.148;39.604;2023-01-29T06:19:34;41.05;;;21.50;;
52031;SDS011;38044;45.148;39.604;2023-01-29T06:22:00;43.65;;;22.83;;
52031;SDS011;38044;45.148;39.604;2023-01-29T06:24:26;37.78;;;19.95;;
52031;SDS011;38044;45.148;39.604;2023-01-29T06:26:52;36.58;;;20.48;;
52031;SDS011;38044;45.148;39.604;2023-01-29T06:29:17;42.83;;;22.75;;
52031;SDS011;38044;45.148;39.604;2023-01-29T06:31:43;44.03;;;23.65;;
52031;SDS011;38044;45.148;39.604;2023-01-29T06:34:09;44.45;;;23.20;;
52031;SDS011;38044;45.148;39.604;2023-01-29T06:36:36;41.67;;;21.67;;
52031;SDS011;38044;45.148;39.604;2023-01-29T06:39:02;44.25;;;23.40;;
52031;SDS011;38044;45.148;39.604;2023-01-29T06:41:28;39.38;;;22.65;;
52031;SDS011;38044;45.148;39.604;2023-01-29T06:43:54;39.05;;;21.95;;
52031;SDS011;38044;45.148;39.604;2023-01-29T06:46:20;41.75;;;21.90;;
52031;SDS011;38044;45.148;39.604;2023-01-29T06:48:45;39.53;;;21.73;;
52031;SDS011;38044;45.148;39.604;2023-01-29T06:51:11;41.88;;;22.50;;
52031;SDS011;38044;45.148;39.604;2023-01-29T06:53:37;41.75;;;23.80;;
52031;SDS011;38044;45.148;39.604;2023-01-29T06:56:04;42.83;;;23.50;;
52031;SDS011;38044;45.148;39.604;2023-01-29T06:58:30;48.55;;;25.17;;
52031;SDS011;38044;45.148;39.604;2023-01-29T07:01:06;41.80;;;24.45;;
52031;SDS011;38044;45.148;39.604;2023-01-29T07:03:34;46.22;;;25.70;;
52031;SDS011;38044;45.148;39.604;2023-01-29T07:06:10;39.05;;;23.08;;
52031;SDS011;38044;45.148;39.604;2023-01-29T07:08:36;40.33;;;22.33;;
52031;SDS011;38044;45.148;39.604;2023-01-29T07:11:03;39.55;;;24.52;;
52031;SDS011;38044;45.148;39.604;2023-01-29T07:13:29;40.33;;;22.17;;
52031;SDS011;38044;45.148;39.604;2023-01-29T07:15:58;39.28;;;21.88;;
52031;SDS011;38044;45.148;39.604;2023-01-29T07:18:28;43.33;;;23.58;;
52031;SDS011;38044;45.148;39.604;2023-01-29T07:20:55;40.67;;;22.92;;
52031;SDS011;38044;45.148;39.604;2023-01-29T07:23:22;42.13;;;23.63;;
52031;SDS011;38044;45.148;39.604;2023-01-29T07:25:49;41.80;;;23.48;;
52031;SDS011;38044;45.148;39.604;2023-01-29T07:28:18;46.05;;;25.75;;
52031;SDS011;38044;45.148;39.604;2023-01-29T07:30:47;38.00;;;23.15;;
52031;SDS011;38044;45.148;39.604;2023-01-29T07:33:12;41.13;;;23.58;;
52031;SDS011;38044;45.148;39.604;2023-01-29T07:35:39;36.33;;;22.52;;
52031;SDS011;38044;45.148;39.604;2023-01-29T07:38:09;43.55;;;23.85;;
52031;SDS011;38044;45.148;39.604;2023-01-29T07:40:35;43.28;;;25.95;;
52031;SDS011;38044;45.148;39.604;2023-01-29T07:43:02;44.30;;;25.00;;
52031;SDS011;38044;45.148;39.604;2023-01-29T07:45:30;41.00;;;26.90;;
52031;SDS011;38044;45.148;39.604;2023-01-29T07:47:57;52.47;;;30.20;;
52031;SDS011;38044;45.148;39.604;2023-01-29T07:50:23;48.65;;;28.45;;
52031;SDS011;38044;45.148;39.604;2023-01-29T07:52:50;43.67;;;27.90;;
52031;SDS011;38044;45.148;39.604;2023-01-29T07:55:18;48.95;;;31.00;;
52031;SDS011;38044;45.148;39.604;2023-01-29T07:57:44;45.50;;;29.17;;
52031;SDS011;38044;45.148;39.604;2023-01-29T08:00:10;40.50;;;26.40;;
52031;SDS011;38044;45.148;39.604;2023-01-29T08:02:37;38.05;;;24.42;;
52031;SDS011;38044;45.148;39.604;2023-01-29T08:05:04;35.67;;;23.15;;
52031;SDS011;38044;45.148;39.604;2023-01-29T08:07:30;39.80;;;24.40;;
52031;SDS011;38044;45.148;39.604;2023-01-29T08:09:55;37.38;;;23.17;;
52031;SDS011;38044;45.148;39.604;2023-01-29T08:12:21;36.97;;;22.70;;
52031;SDS011;38044;45.148;39.604;2023-01-29T08:14:47;43.38;;;23.60;;
52031;SDS011;38044;45.148;39.604;2023-01-29T08:17:12;42.08;;;24.75;;
52031;SDS011;38044;45.148;39.604;2023-01-29T08:19:38;44.55;;;28.48;;
52031;SDS011;38044;45.148;39.604;2023-01-29T08:22:04;39.10;;;25.58;;
52031;SDS011;38044;45.148;39.604;2023-01-29T08:24:30;44.47;;;27.02;;
52031;SDS011;38044;45.148;39.604;2023-01-29T08:26:56;38.03;;;25.48;;
52031;SDS011;38044;45.148;39.604;2023-01-29T08:29:23;30.10;;;21.67;;
52031;SDS011;38044;45.148;39.604;2023-01-29T08:31:48;33.40;;;22.00;;
52031;SDS011;38044;45.148;39.604;2023-01-29T08:34:14;38.25;;;23.95;;
52031;SDS011;38044;45.148;39.604;2023-01-29T08:36:40;38.40;;;24.30;;
52031;SDS011;38044;45.148;39.604;2023-01-29T08:39:06;50.75;;;30.63;;
52031;SDS011;38044;45.148;39.604;2023-01-29T08:41:31;37.78;;;25.65;;
52031;SDS011;38044;45.148;39.604;2023-01-29T08:43:57;34.13;;;24.58;;
52031;SDS011;38044;45.148;39.604;2023-01-29T08:46:25;34.85;;;24.17;;
52031;SDS011;38044;45.148;39.604;2023-01-29T08:48:51;40.60;;;27.20;;
52031;SDS011;38044;45.148;39.604;2023-01-29T08:51:17;41.38;;;28.77;;
52031;SDS011;38044;45.148;39.604;2023-01-29T08:53:43;41.72;;;29.00;;
52031;SDS011;38044;45.148;39.604;2023-01-29T08:56:09;37.85;;;26.13;;
52031;SDS011;38044;45.148;39.604;2023-01-29T08:58:34;40.63;;;25.63;;
52031;SDS011;38044;45.148;39.604;2023-01-29T09:01:07;39.42;;;25.85;;
52031;SDS011;38044;45.148;39.604;2023-01-29T09:03:34;43.60;;;25.63;;
52031;SDS011;38044;45.148;39.604;2023-01-29T09:06:01;35.47;;;23.80;;
52031;SDS011;38044;45.148;39.604;2023-01-29T09:08:27;35.33;;;22.40;;
52031;SDS011;38044;45.148;39.604;2023-01-29T09:10:53;42.55;;;24.25;;
52031;SDS011;38044;45.148;39.604;2023-01-29T09:13:19;30.35;;;22.38;;
52031;SDS011;38044;45.148;39.604;2023-01-29T09:15:45;32.05;;;21.60;;
52031;SDS011;38044;45.148;39.604;2023-01-29T09:18:10;30.02;;;20.88;;
52031;SDS011;38044;45.148;39.604;2023-01-29T09:20:36;32.85;;;20.75;;
52031;SDS011;38044;45.148;39.604;2023-01-29T09:23:04;42.88;;;20.38;;
52031;SDS011;38044;45.148;39.604;2023-01-29T09:25:30;29.58;;;18.73;;
52031;SDS011;38044;45.148;39.604;2023-01-29T09:27:56;26.65;;;18.08;;
52031;SDS011;38044;45.148;39.604;2023-01-29T09:30:22;28.83;;;18.20;;
52031;SDS011;38044;45.148;39.604;2023-01-29T09:32:48;29.30;;;19.45;;
52031;SDS011;38044;45.148;39.604;2023-01-29T09:35:14;33.70;;;20.10;;
52031;SDS011;38044;45.148;39.604;2023-01-29T09:37:39;38.53;;;20.42;;
52031;SDS011;38044;45.148;39.604;2023-01-29T09:40:05;28.55;;;20.27;;
52031;SDS011;38044;45.148;39.604;2023-01-29T09:42:49;30.77;;;20.98;;
52031;SDS011;38044;45.148;39.604;2023-01-29T09:45:40;29.93;;;20.73;;
52031;SDS011;38044;45.148;39.604;2023-01-29T09:48:16;31.13;;;22.42;;
52031;SDS011;38044;45.148;39.604;2023-01-29T09:50:43;36.63;;;24.02;;
52031;SDS011;38044;45.148;39.604;2023-01-29T09:53:16;34.20;;;23.73;;
52031;SDS011;38044;45.148;39.604;2023-01-29T09:55:49;32.83;;;22.02;;
52031;SDS011;38044;45.148;39.604;2023-01-29T10:14:51;30.77;;;21.25;;
52031;SDS011;38044;45.148;39.604;2023-01-29T10:17:29;33.33;;;23.10;;
52031;SDS011;38044;45.148;39.604;2023-01-29T10:23:20;34.00;;;22.52;;
52031;SDS011;38044;45.148;39.604;2023-01-29T10:25:50;32.13;;;20.40;;
52031;SDS011;38044;45.148;39.604;2023-01-29T10:28:37;32.17;;;22.27;;
52031;SDS011;38044;45.148;39.604;2023-01-29T10:33:58;40.15;;;27.85;;
52031;SDS011;38044;45.148;39.604;2023-01-29T10:36:47;40.60;;;28.23;;
52031;SDS011;38044;45.148;39.604;2023-01-29T10:39:17;37.55;;;26.98;;
52031;SDS011;38044;45.148;39.604;2023-01-29T10:41:54;40.78;;;27.20;;
52031;SDS011;38044;45.148;39.604;2023-01-29T10:47:45;33.90;;;25.95;;
52031;SDS011;38044;45.148;39.604;2023-01-29T10:59:31;35.92;;;25.17;;
52031;SDS011;38044;45.148;39.604;2023-01-29T11:02:16;37.60;;;25.83;;
52031;SDS011;38044;45.148;39.604;2023-01-29T11:04:45;35.95;;;26.20;;
52031;SDS011;38044;45.148;39.604;2023-01-29T11:07:11;35.00;;;24.70;;
52031;SDS011;38044;45.148;39.604;2023-01-29T11:12:13;37.60;;;23.45;;
52031;SDS011;38044;45.148;39.604;2023-01-29T11:17:26;38.90;;;25.50;;
52031;SDS011;38044;45.148;39.604;2023-01-29T11:19:53;33.38;;;22.33;;
52031;SDS011;38044;45.148;39.604;2023-01-29T11:22:23;31.17;;;20.02;;
52031;SDS011;38044;45.148;39.604;2023-01-29T11:25:26;34.38;;;21.30;;
52031;SDS011;38044;45.148;39.604;2023-01-29T11:27:51;32.00;;;22.38;;
52031;SDS011;38044;45.148;39.604;2023-01-29T11:30:22;28.98;;;19.52;;
52031;SDS011;38044;45.148;39.604;2023-01-29T11:35:32;27.05;;;19.00;;
52031;SDS011;38044;45.148;39.604;2023-01-29T11:38:06;23.70;;;17.05;;
52031;SDS011;38044;45.148;39.604;2023-01-29T11:40:42;26.02;;;17.48;;
52031;SDS011;38044;45.148;39.604;2023-01-29T11:43:28;34.47;;;19.20;;
52031;SDS011;38044;45.148;39.604;2023-01-29T11:46:01;29.98;;;19.42;;
52031;SDS011;38044;45.148;39.604;2023-01-29T11:48:45;29.98;;;18.65;;
52031;SDS011;38044;45.148;39.604;2023-01-29T11:51:20;39.22;;;23.63;;
52031;SDS011;38044;45.148;39.604;2023-01-29T11:56:21;29.17;;;18.33;;
52031;SDS011;38044;45.148;39.604;2023-01-29T11:58:52;41.42;;;24.25;;
52031;SDS011;38044;45.148;39.604;2023-01-29T12:01:28;23.98;;;15.85;;
52031;SDS011;38044;45.148;39.604;2023-01-29T12:04:03;21.90;;;16.00;;
52031;SDS011;38044;45.148;39.604;2023-01-29T12:06:41;21.10;;;13.75;;
52031;SDS011;38044;45.148;39.604;2023-01-29T12:09:14;22.33;;;14.93;;
52031;SDS011;38044;45.148;39.604;2023-01-29T12:11:43;20.48;;;15.02;;
52031;SDS011;38044;45.148;39.604;2023-01-29T12:14:29;21.35;;;14.77;;
52031;SDS011;38044;45.148;39.604;2023-01-29T12:16:59;22.00;;;14.30;;
52031;SDS011;38044;45.148;39.604;2023-01-29T12:22:24;23.70;;;14.52;;
52031;SDS011;38044;45.148;39.604;2023-01-29T12:25:02;32.53;;;17.40;;
52031;SDS011;38044;45.148;39.604;2023-01-29T12:27:45;56.33;;;28.63;;
52031;SDS011;38044;45.148;39.604;2023-01-29T12:38:33;60.38;;;30.77;;
52031;SDS011;38044;45.148;39.604;2023-01-29T12:41:10;101.85;;;46.00;;
52031;SDS011;38044;45.148;39.604;2023-01-29T12:44:06;266.55;;;116.78;;
52031;SDS011;38044;45.148;39.604;2023-01-29T12:46:39;162.10;;;70.70;;
52031;SDS011;38044;45.148;39.604;2023-01-29T12:49:11;34.45;;;20.50;;
52031;SDS011;38044;45.148;39.604;2023-01-29T12:51:55;29.63;;;17.67;;
52031;SDS011;38044;45.148;39.604;2023-01-29T12:54:55;22.25;;;13.85;;
52031;SDS011;38044;45.148;39.604;2023-01-29T13:00:15;22.13;;;12.70;;
52031;SDS011;38044;45.148;39.604;2023-01-29T13:05:25;16.83;;;10.38;;
52031;SDS011;38044;45.148;39.604;2023-01-29T13:11:03;18.70;;;10.98;;
52031;SDS011;38044;45.148;39.604;2023-01-29T13:13:47;19.88;;;11.45;;
52031;SDS011;38044;45.148;39.604;2023-01-29T13:16:18;19.55;;;11.25;;
52031;SDS011;38044;45.148;39.604;2023-01-29T13:21:26;28.33;;;15.13;;
52031;SDS011;38044;45.148;39.604;2023-01-29T13:23:56;18.50;;;11.07;;
52031;SDS011;38044;45.148;39.604;2023-01-29T13:26:26;25.20;;;14.68;;
52031;SDS011;38044;45.148;39.604;2023-01-29T13:28:53;34.35;;;17.48;;
52031;SDS011;38044;45.148;39.604;2023-01-29T13:31:25;31.17;;;16.08;;
52031;SDS011;38044;45.148;39.604;2023-01-29T13:36:31;52.30;;;27.88;;
52031;SDS011;38044;45.148;39.604;2023-01-29T13:39:00;43.80;;;24.13;;
52031;SDS011;38044;45.148;39.604;2023-01-29T13:41:30;31.10;;;18.77;;
52031;SDS011;38044;45.148;39.604;2023-01-29T13:43:58;27.25;;;18.15;;
52031;SDS011;38044;45.148;39.604;2023-01-29T13:46:24;39.72;;;24.50;;
52031;SDS011;38044;45.148;39.604;2023-01-29T13:48:50;35.38;;;24.13;;
52031;SDS011;38044;45.148;39.604;2023-01-29T13:51:20;34.55;;;20.08;;
52031;SDS011;38044;45.148;39.604;2023-01-29T13:53:51;21.88;;;13.45;;
52031;SDS011;38044;45.148;39.604;2023-01-29T13:58:59;39.35;;;19.98;;
52031;SDS011;38044;45.148;39.604;2023-01-29T14:04:14;35.35;;;16.95;;
52031;SDS011;38044;45.148;39.604;2023-01-29T14:06:50;35.92;;;17.17;;
52031;SDS011;38044;45.148;39.604;2023-01-29T14:09:30;28.42;;;15.45;;
52031;SDS011;38044;45.148;39.604;2023-01-29T14:12:29;40.55;;;18.23;;
52031;SDS011;38044;45.148;39.604;2023-01-29T14:17:23;33.22;;;17.77;;
52031;SDS011;38044;45.148;39.604;2023-01-29T14:19:52;39.13;;;19.65;;
52031;SDS011;38044;45.148;39.604;2023-01-29T14:22:40;34.15;;;19.23;;
52031;SDS011;38044;45.148;39.604;2023-01-29T14:25:14;49.33;;;19.05;;
52031;SDS011;38044;45.148;39.604;2023-01-29T14:27:46;45.10;;;20.25;;
52031;SDS011;38044;45.148;39.604;2023-01-29T14:30:15;32.85;;;19.13;;
52031;SDS011;38044;45.148;39.604;2023-01-29T14:32:46;32.67;;;17.33;;
52031;SDS011;38044;45.148;39.604;2023-01-29T14:37:47;42.55;;;18.05;;
52031;SDS011;38044;45.148;39.604;2023-01-29T14:40:20;31.40;;;17.08;;
52031;SDS011;38044;45.148;39.604;2023-01-29T14:43:04;30.25;;;15.32;;
52031;SDS011;38044;45.148;39.604;2023-01-29T14:45:36;31.60;;;16.75;;
52031;SDS011;38044;45.148;39.604;2023-01-29T14:58:54;26.27;;;15.07;;
52031;SDS011;38044;45.148;39.604;2023-01-29T15:01:47;29.92;;;15.50;;
52031;SDS011;38044;45.148;39.604;2023-01-29T15:04:34;32.13;;;16.83;;
52031;SDS011;38044;45.148;39.604;2023-01-29T15:10:15;30.15;;;15.85;;
52031;SDS011;38044;45.148;39.604;2023-01-29T15:12:51;27.92;;;16.90;;
52031;SDS011;38044;45.148;39.604;2023-01-29T15:21:21;31.20;;;18.10;;
52031;SDS011;38044;45.148;39.604;2023-01-29T15:23:47;35.25;;;17.17;;
52031;SDS011;38044;45.148;39.604;2023-01-29T15:26:28;32.13;;;17.95;;
52031;SDS011;38044;45.148;39.604;2023-01-29T15:28:58;33.47;;;18.08;;
52031;SDS011;38044;45.148;39.604;2023-01-29T15:31:25;33.72;;;18.10;;
52031;SDS011;38044;45.148;39.604;2023-01-29T15:33:53;36.00;;;18.48;;
52031;SDS011;38044;45.148;39.604;2023-01-29T15:36:24;34.80;;;19.15;;
52031;SDS011;38044;45.148;39.604;2023-01-29T15:39:06;40.60;;;18.93;;
52031;SDS011;38044;45.148;39.604;2023-01-29T15:41:32;31.23;;;16.90;;
52031;SDS011;38044;45.148;39.604;2023-01-29T15:43:57;34.58;;;18.02;;
52031;SDS011;38044;45.148;39.604;2023-01-29T15:48:53;31.38;;;17.67;;
52031;SDS011;38044;45.148;39.604;2023-01-29T15:51:22;36.58;;;17.25;;
52031;SDS011;38044;45.148;39.604;2023-01-29T15:53:51;34.70;;;18.88;;
52031;SDS011;38044;45.148;39.604;2023-01-29T15:56:22;31.52;;;17.17;;
52031;SDS011;38044;45.148;39.604;2023-01-29T15:58:53;35.13;;;17.42;;
52031;SDS011;38044;45.148;39.604;2023-01-29T16:01:26;36.08;;;18.17;;
52031;SDS011;38044;45.148;39.604;2023-01-29T16:03:53;33.50;;;18.08;;
52031;SDS011;38044;45.148;39.604;2023-01-29T16:06:21;31.40;;;16.75;;
52031;SDS011;38044;45.148;39.604;2023-01-29T16:08:51;28.42;;;16.77;;
52031;SDS011;38044;45.148;39.604;2023-01-29T16:11:18;31.85;;;17.23;;
52031;SDS011;38044;45.148;39.604;2023-01-29T16:13:46;33.50;;;17.27;;
52031;SDS011;38044;45.148;39.604;2023-01-29T16:18:43;31.70;;;17.13;;
52031;SDS011;38044;45.148;39.604;2023-01-29T16:21:16;32.30;;;17.02;;
52031;SDS011;38044;45.148;39.604;2023-01-29T16:24:11;30.55;;;17.25;;
52031;SDS011;38044;45.148;39.604;2023-01-29T16:26:46;35.03;;;18.48;;
52031;SDS011;38044;45.148;39.604;2023-01-29T16:29:14;31.10;;;17.98;;
52031;SDS011;38044;45.148;39.604;2023-01-29T16:31:46;30.15;;;18.30;;
52031;SDS011;38044;45.148;39.604;2023-01-29T16:34:19;39.70;;;19.35;;
52031;SDS011;38044;45.148;39.604;2023-01-29T16:37:05;35.47;;;19.88;;
52031;SDS011;38044;45.148;39.604;2023-01-29T16:39:48;36.85;;;20.58;;
52031;SDS011;38044;45.148;39.604;2023-01-29T16:44:53;35.47;;;20.42;;
52031;SDS011;38044;45.148;39.604;2023-01-29T16:47:25;38.53;;;21.05;;
52031;SDS011;38044;45.148;39.604;2023-01-29T16:53:03;40.92;;;21.75;;
52031;SDS011;38044;45.148;39.604;2023-01-29T16:55:37;42.97;;;21.73;;
52031;SDS011;38044;45.148;39.604;2023-01-29T16:58:11;39.20;;;21.10;;
52031;SDS011;38044;45.148;39.604;2023-01-29T17:00:44;42.20;;;22.60;;
52031;SDS011;38044;45.148;39.604;2023-01-29T17:03:12;44.47;;;23.10;;
52031;SDS011;38044;45.148;39.604;2023-01-29T17:05:41;41.17;;;22.27;;
52031;SDS011;38044;45.148;39.604;2023-01-29T17:08:13;39.80;;;21.73;;
52031;SDS011;38044;45.148;39.604;2023-01-29T17:10:46;46.30;;;24.27;;
52031;SDS011;38044;45.148;39.604;2023-01-29T17:13:21;44.58;;;23.20;;